sensor_id;sensor_type;location;lat;lon;timestamp;P1;durP1;ratioP1;P2;durP2;ratioP2
14187;SDS011;7175;51.978;5.330;2022-08-03T00:02:04;26.47;;;24.60;;
14187;SDS011;7175;51.978;5.330;2022-08-03T00:04:42;27.83;;;25.93;;
14187;SDS011;7175;51.978;5.330;2022-08-03T00:07:24;28.23;;;26.27;;
14187;SDS011;7175;51.978;5.330;2022-08-03T00:09:54;28.87;;;26.87;;
14187;SDS011;7175;51.978;5.330;2022-08-03T00:15:17;29.63;;;27.63;;
14187;SDS011;7175;51.978;5.330;2022-08-03T00:17:46;29.80;;;27.80;;
14187;SDS011;7175;51.978;5.330;2022-08-03T00:20:26;33.27;;;31.17;;
14187;SDS011;7175;51.978;5.330;2022-08-03T00:22:55;33.17;;;31.03;;
14187;SDS011;7175;51.978;5.330;2022-08-03T00:25:32;33.90;;;31.70;;
14187;SDS011;7175;51.978;5.330;2022-08-03T00:34:05;36.90;;;34.57;;
14187;SDS011;7175;51.978;5.330;2022-08-03T00:42:15;40.60;;;38.00;;
14187;SDS011;7175;51.978;5.330;2022-08-03T00:44:51;40.53;;;38.03;;
14187;SDS011;7175;51.978;5.330;2022-08-03T00:47:20;42.77;;;40.07;;
14187;SDS011;7175;51.978;5.330;2022-08-03T00:50:03;41.80;;;39.20;;
14187;SDS011;7175;51.978;5.330;2022-08-03T00:52:39;42.60;;;39.30;;
14187;SDS011;7175;51.978;5.330;2022-08-03T00:55:13;38.77;;;36.37;;
14187;SDS011;7175;51.978;5.330;2022-08-03T01:03:30;43.60;;;40.90;;
14187;SDS011;7175;51.978;5.330;2022-08-03T01:06:16;43.10;;;40.47;;
14187;SDS011;7175;51.978;5.330;2022-08-03T01:08:46;43.53;;;40.83;;
14187;SDS011;7175;51.978;5.330;2022-08-03T01:11:22;44.10;;;41.40;;
14187;SDS011;7175;51.978;5.330;2022-08-03T01:14:02;46.53;;;43.73;;
14187;SDS011;7175;51.978;5.330;2022-08-03T01:16:50;46.53;;;43.70;;
14187;SDS011;7175;51.978;5.330;2022-08-03T01:19:40;45.90;;;43.10;;
14187;SDS011;7175;51.978;5.330;2022-08-03T01:22:18;47.47;;;44.50;;
14187;SDS011;7175;51.978;5.330;2022-08-03T01:25:23;48.97;;;45.97;;
14187;SDS011;7175;51.978;5.330;2022-08-03T01:28:08;48.63;;;45.63;;
14187;SDS011;7175;51.978;5.330;2022-08-03T01:34:06;51.20;;;48.10;;
14187;SDS011;7175;51.978;5.330;2022-08-03T01:36:47;51.83;;;48.63;;
14187;SDS011;7175;51.978;5.330;2022-08-03T01:39:21;52.10;;;49.00;;
14187;SDS011;7175;51.978;5.330;2022-08-03T01:47:58;57.30;;;53.53;;
14187;SDS011;7175;51.978;5.330;2022-08-03T01:56:08;58.77;;;55.37;;
14187;SDS011;7175;51.978;5.330;2022-08-03T01:58:42;59.60;;;56.20;;
14187;SDS011;7175;51.978;5.330;2022-08-03T02:01:20;60.03;;;56.53;;
14187;SDS011;7175;51.978;5.330;2022-08-03T02:04:12;57.73;;;54.43;;
14187;SDS011;7175;51.978;5.330;2022-08-03T02:06:51;58.00;;;54.70;;
14187;SDS011;7175;51.978;5.330;2022-08-03T02:12:11;58.40;;;55.00;;
14187;SDS011;7175;51.978;5.330;2022-08-03T02:17:46;57.77;;;54.47;;
14187;SDS011;7175;51.978;5.330;2022-08-03T02:20:18;57.90;;;54.60;;
14187;SDS011;7175;51.978;5.330;2022-08-03T02:22:51;59.30;;;55.90;;
14187;SDS011;7175;51.978;5.330;2022-08-03T02:25:25;58.63;;;55.27;;
14187;SDS011;7175;51.978;5.330;2022-08-03T02:27:57;59.17;;;55.77;;
14187;SDS011;7175;51.978;5.330;2022-08-03T02:30:36;57.87;;;54.47;;
14187;SDS011;7175;51.978;5.330;2022-08-03T02:33:10;57.57;;;54.27;;
14187;SDS011;7175;51.978;5.330;2022-08-03T02:36:03;58.83;;;55.37;;
14187;SDS011;7175;51.978;5.330;2022-08-03T02:38:35;59.60;;;56.20;;
14187;SDS011;7175;51.978;5.330;2022-08-03T02:44:23;60.07;;;56.60;;
14187;SDS011;7175;51.978;5.330;2022-08-03T02:52:35;63.37;;;59.67;;
14187;SDS011;7175;51.978;5.330;2022-08-03T03:01:24;66.30;;;62.60;;
14187;SDS011;7175;51.978;5.330;2022-08-03T03:03:58;67.10;;;63.30;;
14187;SDS011;7175;51.978;5.330;2022-08-03T03:09:16;69.87;;;65.20;;
14187;SDS011;7175;51.978;5.330;2022-08-03T03:11:52;66.97;;;63.17;;
14187;SDS011;7175;51.978;5.330;2022-08-03T03:14:21;64.90;;;61.20;;
14187;SDS011;7175;51.978;5.330;2022-08-03T03:17:11;68.10;;;64.20;;
14187;SDS011;7175;51.978;5.330;2022-08-03T03:19:45;66.40;;;62.50;;
14187;SDS011;7175;51.978;5.330;2022-08-03T03:25:00;64.97;;;61.17;;
14187;SDS011;7175;51.978;5.330;2022-08-03T03:27:38;64.40;;;60.63;;
14187;SDS011;7175;51.978;5.330;2022-08-03T03:33:14;58.40;;;55.00;;
14187;SDS011;7175;51.978;5.330;2022-08-03T03:35:51;62.33;;;58.53;;
14187;SDS011;7175;51.978;5.330;2022-08-03T03:38:38;62.50;;;58.80;;
14187;SDS011;7175;51.978;5.330;2022-08-03T03:41:08;61.47;;;57.87;;
14187;SDS011;7175;51.978;5.330;2022-08-03T03:43:39;63.47;;;59.77;;
14187;SDS011;7175;51.978;5.330;2022-08-03T03:46:10;65.60;;;61.80;;
14187;SDS011;7175;51.978;5.330;2022-08-03T03:48:41;66.20;;;62.30;;
14187;SDS011;7175;51.978;5.330;2022-08-03T03:51:10;64.87;;;60.97;;
14187;SDS011;7175;51.978;5.330;2022-08-03T03:53:56;66.70;;;62.60;;
14187;SDS011;7175;51.978;5.330;2022-08-03T03:56:27;67.77;;;63.77;;
14187;SDS011;7175;51.978;5.330;2022-08-03T04:04:44;68.47;;;64.47;;
14187;SDS011;7175;51.978;5.330;2022-08-03T04:07:37;69.50;;;65.50;;
14187;SDS011;7175;51.978;5.330;2022-08-03T04:10:45;69.47;;;65.33;;
14187;SDS011;7175;51.978;5.330;2022-08-03T04:13:30;68.73;;;64.73;;
14187;SDS011;7175;51.978;5.330;2022-08-03T04:16:04;72.70;;;68.50;;
14187;SDS011;7175;51.978;5.330;2022-08-03T04:18:35;70.80;;;66.70;;
14187;SDS011;7175;51.978;5.330;2022-08-03T04:23:43;72.10;;;67.60;;
14187;SDS011;7175;51.978;5.330;2022-08-03T04:26:24;72.17;;;67.97;;
14187;SDS011;7175;51.978;5.330;2022-08-03T04:29:09;70.07;;;65.97;;
14187;SDS011;7175;51.978;5.330;2022-08-03T04:31:43;70.73;;;66.43;;
14187;SDS011;7175;51.978;5.330;2022-08-03T04:34:20;68.00;;;64.00;;
14187;SDS011;7175;51.978;5.330;2022-08-03T04:39:54;69.63;;;65.53;;
14187;SDS011;7175;51.978;5.330;2022-08-03T04:42:27;71.70;;;67.50;;
14187;SDS011;7175;51.978;5.330;2022-08-03T04:45:06;70.07;;;65.97;;
14187;SDS011;7175;51.978;5.330;2022-08-03T04:47:46;71.30;;;67.20;;
14187;SDS011;7175;51.978;5.330;2022-08-03T04:50:21;70.13;;;65.67;;
14187;SDS011;7175;51.978;5.330;2022-08-03T04:52:50;67.10;;;63.00;;
14187;SDS011;7175;51.978;5.330;2022-08-03T04:55:29;68.87;;;64.87;;
14187;SDS011;7175;51.978;5.330;2022-08-03T04:58:16;68.97;;;64.87;;
14187;SDS011;7175;51.978;5.330;2022-08-03T05:00:45;66.93;;;63.03;;
14187;SDS011;7175;51.978;5.330;2022-08-03T05:03:22;65.70;;;61.80;;
14187;SDS011;7175;51.978;5.330;2022-08-03T05:05:58;66.40;;;62.40;;
14187;SDS011;7175;51.978;5.330;2022-08-03T05:08:53;63.57;;;59.77;;
14187;SDS011;7175;51.978;5.330;2022-08-03T05:11:32;63.67;;;59.87;;
14187;SDS011;7175;51.978;5.330;2022-08-03T05:14:18;63.00;;;59.20;;
14187;SDS011;7175;51.978;5.330;2022-08-03T05:22:39;91.00;;;63.83;;
14187;SDS011;7175;51.978;5.330;2022-08-03T05:25:18;67.93;;;63.83;;
14187;SDS011;7175;51.978;5.330;2022-08-03T05:27:54;69.90;;;65.70;;
14187;SDS011;7175;51.978;5.330;2022-08-03T05:30:38;66.03;;;61.90;;
14187;SDS011;7175;51.978;5.330;2022-08-03T05:33:21;68.50;;;64.40;;
14187;SDS011;7175;51.978;5.330;2022-08-03T05:35:49;65.67;;;61.67;;
14187;SDS011;7175;51.978;5.330;2022-08-03T05:38:30;62.97;;;59.07;;
14187;SDS011;7175;51.978;5.330;2022-08-03T05:43:52;58.43;;;54.83;;
14187;SDS011;7175;51.978;5.330;2022-08-03T05:46:28;56.53;;;53.03;;
14187;SDS011;7175;51.978;5.330;2022-08-03T05:49:02;52.37;;;49.07;;
14187;SDS011;7175;51.978;5.330;2022-08-03T05:51:38;50.80;;;47.60;;
14187;SDS011;7175;51.978;5.330;2022-08-03T05:54:07;50.20;;;46.90;;
14187;SDS011;7175;51.978;5.330;2022-08-03T05:56:35;45.50;;;42.40;;
14187;SDS011;7175;51.978;5.330;2022-08-03T05:59:17;42.70;;;39.83;;
14187;SDS011;7175;51.978;5.330;2022-08-03T06:02:05;41.10;;;37.80;;
14187;SDS011;7175;51.978;5.330;2022-08-03T06:04:51;36.73;;;33.60;;
14187;SDS011;7175;51.978;5.330;2022-08-03T06:07:29;35.40;;;32.60;;
14187;SDS011;7175;51.978;5.330;2022-08-03T06:10:06;30.53;;;28.33;;
14187;SDS011;7175;51.978;5.330;2022-08-03T06:12:57;29.20;;;27.10;;
14187;SDS011;7175;51.978;5.330;2022-08-03T06:15:35;26.60;;;24.60;;
14187;SDS011;7175;51.978;5.330;2022-08-03T06:18:09;25.60;;;23.60;;
14187;SDS011;7175;51.978;5.330;2022-08-03T06:20:43;25.10;;;23.10;;
14187;SDS011;7175;51.978;5.330;2022-08-03T06:23:25;23.93;;;22.03;;
14187;SDS011;7175;51.978;5.330;2022-08-03T06:26:19;22.63;;;20.83;;
14187;SDS011;7175;51.978;5.330;2022-08-03T06:28:53;22.50;;;20.70;;
14187;SDS011;7175;51.978;5.330;2022-08-03T06:31:25;21.30;;;19.60;;
14187;SDS011;7175;51.978;5.330;2022-08-03T06:34:02;20.87;;;19.27;;
14187;SDS011;7175;51.978;5.330;2022-08-03T06:36:55;21.20;;;19.50;;
14187;SDS011;7175;51.978;5.330;2022-08-03T06:39:33;20.00;;;18.40;;
14187;SDS011;7175;51.978;5.330;2022-08-03T06:42:11;20.53;;;18.93;;
14187;SDS011;7175;51.978;5.330;2022-08-03T06:44:47;20.00;;;18.40;;
14187;SDS011;7175;51.978;5.330;2022-08-03T06:47:23;19.20;;;17.70;;
14187;SDS011;7175;51.978;5.330;2022-08-03T06:50:03;19.33;;;17.83;;
14187;SDS011;7175;51.978;5.330;2022-08-03T06:52:52;19.60;;;18.00;;
14187;SDS011;7175;51.978;5.330;2022-08-03T06:58:07;19.53;;;18.03;;
14187;SDS011;7175;51.978;5.330;2022-08-03T07:00:36;20.10;;;18.50;;
14187;SDS011;7175;51.978;5.330;2022-08-03T07:03:04;19.30;;;17.70;;
14187;SDS011;7175;51.978;5.330;2022-08-03T07:05:34;19.30;;;17.80;;
14187;SDS011;7175;51.978;5.330;2022-08-03T07:10:59;19.60;;;18.00;;
14187;SDS011;7175;51.978;5.330;2022-08-03T07:13:35;19.10;;;17.60;;
14187;SDS011;7175;51.978;5.330;2022-08-03T07:16:04;20.20;;;18.60;;
14187;SDS011;7175;51.978;5.330;2022-08-03T07:18:47;20.10;;;18.40;;
14187;SDS011;7175;51.978;5.330;2022-08-03T07:21:17;19.37;;;17.77;;
14187;SDS011;7175;51.978;5.330;2022-08-03T07:23:56;19.00;;;17.50;;
14187;SDS011;7175;51.978;5.330;2022-08-03T07:26:38;19.13;;;17.63;;
14187;SDS011;7175;51.978;5.330;2022-08-03T07:29:07;19.70;;;18.10;;
14187;SDS011;7175;51.978;5.330;2022-08-03T07:35:02;19.73;;;18.13;;
14187;SDS011;7175;51.978;5.330;2022-08-03T07:37:34;19.77;;;18.17;;
14187;SDS011;7175;51.978;5.330;2022-08-03T07:40:13;21.43;;;19.63;;
14187;SDS011;7175;51.978;5.330;2022-08-03T07:45:48;21.70;;;19.90;;
14187;SDS011;7175;51.978;5.330;2022-08-03T07:48:30;20.70;;;19.00;;
14187;SDS011;7175;51.978;5.330;2022-08-03T07:50:59;20.37;;;18.73;;
14187;SDS011;7175;51.978;5.330;2022-08-03T07:53:43;21.23;;;19.43;;
14187;SDS011;7175;51.978;5.330;2022-08-03T07:56:14;20.23;;;18.60;;
14187;SDS011;7175;51.978;5.330;2022-08-03T07:58:52;20.80;;;19.10;;
14187;SDS011;7175;51.978;5.330;2022-08-03T08:01:23;19.97;;;18.37;;
14187;SDS011;7175;51.978;5.330;2022-08-03T08:04:01;19.53;;;17.93;;
14187;SDS011;7175;51.978;5.330;2022-08-03T08:06:41;20.37;;;18.57;;
14187;SDS011;7175;51.978;5.330;2022-08-03T08:15:16;20.63;;;19.03;;
14187;SDS011;7175;51.978;5.330;2022-08-03T08:17:51;23.67;;;19.97;;
14187;SDS011;7175;51.978;5.330;2022-08-03T08:23:12;19.13;;;17.63;;
14187;SDS011;7175;51.978;5.330;2022-08-03T08:26:09;19.33;;;17.83;;
14187;SDS011;7175;51.978;5.330;2022-08-03T08:31:18;20.43;;;18.73;;
14187;SDS011;7175;51.978;5.330;2022-08-03T08:33:47;18.83;;;17.33;;
14187;SDS011;7175;51.978;5.330;2022-08-03T08:36:38;21.93;;;19.23;;
14187;SDS011;7175;51.978;5.330;2022-08-03T08:41:53;19.30;;;17.80;;
14187;SDS011;7175;51.978;5.330;2022-08-03T08:44:25;20.10;;;18.50;;
14187;SDS011;7175;51.978;5.330;2022-08-03T08:47:17;21.93;;;18.47;;
14187;SDS011;7175;51.978;5.330;2022-08-03T08:49:53;20.27;;;18.57;;
14187;SDS011;7175;51.978;5.330;2022-08-03T08:52:49;19.80;;;18.20;;
14187;SDS011;7175;51.978;5.330;2022-08-03T08:55:33;20.17;;;18.47;;
14187;SDS011;7175;51.978;5.330;2022-08-03T09:08:56;23.00;;;20.43;;
14187;SDS011;7175;51.978;5.330;2022-08-03T09:11:29;19.43;;;17.83;;
14187;SDS011;7175;51.978;5.330;2022-08-03T09:14:18;19.27;;;17.73;;
14187;SDS011;7175;51.978;5.330;2022-08-03T09:20:02;27.13;;;18.97;;
14187;SDS011;7175;51.978;5.330;2022-08-03T09:26:24;21.00;;;19.30;;
14187;SDS011;7175;51.978;5.330;2022-08-03T09:31:58;20.33;;;18.63;;
14187;SDS011;7175;51.978;5.330;2022-08-03T09:34:41;20.40;;;18.50;;
14187;SDS011;7175;51.978;5.330;2022-08-03T09:37:24;19.30;;;17.70;;
14187;SDS011;7175;51.978;5.330;2022-08-03T09:40:17;19.60;;;18.00;;
14187;SDS011;7175;51.978;5.330;2022-08-03T09:49:06;18.80;;;17.30;;
14187;SDS011;7175;51.978;5.330;2022-08-03T09:51:44;19.73;;;18.13;;
14187;SDS011;7175;51.978;5.330;2022-08-03T09:54:35;20.97;;;19.13;;
14187;SDS011;7175;51.978;5.330;2022-08-03T09:57:03;18.73;;;17.10;;
14187;SDS011;7175;51.978;5.330;2022-08-03T09:59:42;20.20;;;18.20;;
14187;SDS011;7175;51.978;5.330;2022-08-03T10:05:14;19.93;;;18.13;;
14187;SDS011;7175;51.978;5.330;2022-08-03T10:07:46;18.60;;;17.10;;
14187;SDS011;7175;51.978;5.330;2022-08-03T10:10:16;19.43;;;17.83;;
14187;SDS011;7175;51.978;5.330;2022-08-03T10:15:42;18.57;;;17.07;;
14187;SDS011;7175;51.978;5.330;2022-08-03T10:18:33;18.70;;;17.20;;
14187;SDS011;7175;51.978;5.330;2022-08-03T10:21:16;18.63;;;17.13;;
14187;SDS011;7175;51.978;5.330;2022-08-03T10:23:54;18.33;;;16.90;;
14187;SDS011;7175;51.978;5.330;2022-08-03T10:26:27;18.43;;;16.80;;
14187;SDS011;7175;51.978;5.330;2022-08-03T10:29:04;18.50;;;17.10;;
14187;SDS011;7175;51.978;5.330;2022-08-03T10:31:42;18.03;;;16.63;;
14187;SDS011;7175;51.978;5.330;2022-08-03T10:34:24;20.93;;;19.10;;
14187;SDS011;7175;51.978;5.330;2022-08-03T10:39:44;18.10;;;16.70;;
14187;SDS011;7175;51.978;5.330;2022-08-03T10:42:23;18.30;;;16.90;;
14187;SDS011;7175;51.978;5.330;2022-08-03T10:44:55;25.03;;;17.37;;
14187;SDS011;7175;51.978;5.330;2022-08-03T10:47:43;18.03;;;16.63;;
14187;SDS011;7175;51.978;5.330;2022-08-03T10:53:16;19.70;;;18.07;;
14187;SDS011;7175;51.978;5.330;2022-08-03T10:59:57;18.13;;;16.73;;
14187;SDS011;7175;51.978;5.330;2022-08-03T11:05:41;18.60;;;17.10;;
14187;SDS011;7175;51.978;5.330;2022-08-03T11:14:09;18.30;;;16.90;;
14187;SDS011;7175;51.978;5.330;2022-08-03T11:16:49;18.43;;;16.93;;
14187;SDS011;7175;51.978;5.330;2022-08-03T11:19:57;18.87;;;16.80;;
14187;SDS011;7175;51.978;5.330;2022-08-03T11:25:27;17.87;;;16.47;;
14187;SDS011;7175;51.978;5.330;2022-08-03T11:28:24;19.10;;;17.50;;
14187;SDS011;7175;51.978;5.330;2022-08-03T11:31:01;17.97;;;16.57;;
14187;SDS011;7175;51.978;5.330;2022-08-03T11:34:25;18.80;;;17.20;;
14187;SDS011;7175;51.978;5.330;2022-08-03T11:40:12;18.27;;;16.77;;
14187;SDS011;7175;51.978;5.330;2022-08-03T11:43:03;18.80;;;17.30;;
14187;SDS011;7175;51.978;5.330;2022-08-03T11:45:33;18.30;;;16.80;;
14187;SDS011;7175;51.978;5.330;2022-08-03T11:50:43;18.80;;;17.30;;
14187;SDS011;7175;51.978;5.330;2022-08-03T11:53:32;20.57;;;18.87;;
14187;SDS011;7175;51.978;5.330;2022-08-03T11:56:17;25.70;;;19.70;;
14187;SDS011;7175;51.978;5.330;2022-08-03T11:58:52;19.17;;;17.57;;
14187;SDS011;7175;51.978;5.330;2022-08-03T12:02:04;19.57;;;17.97;;
14187;SDS011;7175;51.978;5.330;2022-08-03T12:04:50;19.10;;;17.40;;
14187;SDS011;7175;51.978;5.330;2022-08-03T12:07:20;18.90;;;17.40;;
14187;SDS011;7175;51.978;5.330;2022-08-03T12:10:27;19.73;;;18.13;;
14187;SDS011;7175;51.978;5.330;2022-08-03T12:12:58;18.47;;;16.97;;
14187;SDS011;7175;51.978;5.330;2022-08-03T12:15:42;18.80;;;17.30;;
14187;SDS011;7175;51.978;5.330;2022-08-03T12:21:08;23.80;;;16.80;;
14187;SDS011;7175;51.978;5.330;2022-08-03T12:23:37;18.03;;;16.53;;
14187;SDS011;7175;51.978;5.330;2022-08-03T12:29:25;21.90;;;17.23;;
14187;SDS011;7175;51.978;5.330;2022-08-03T12:31:55;21.30;;;17.07;;
14187;SDS011;7175;51.978;5.330;2022-08-03T12:37:31;18.17;;;16.67;;
14187;SDS011;7175;51.978;5.330;2022-08-03T12:40:06;18.60;;;17.03;;
14187;SDS011;7175;51.978;5.330;2022-08-03T12:42:41;18.37;;;16.87;;
14187;SDS011;7175;51.978;5.330;2022-08-03T12:45:23;18.37;;;16.87;;
14187;SDS011;7175;51.978;5.330;2022-08-03T12:50:48;18.70;;;17.20;;
14187;SDS011;7175;51.978;5.330;2022-08-03T12:53:31;20.03;;;18.03;;
14187;SDS011;7175;51.978;5.330;2022-08-03T12:56:10;18.63;;;17.10;;
14187;SDS011;7175;51.978;5.330;2022-08-03T12:58:55;18.47;;;16.97;;
14187;SDS011;7175;51.978;5.330;2022-08-03T13:07:08;18.40;;;16.77;;
14187;SDS011;7175;51.978;5.330;2022-08-03T13:09:50;17.97;;;16.47;;
14187;SDS011;7175;51.978;5.330;2022-08-03T13:12:26;19.20;;;17.50;;
14187;SDS011;7175;51.978;5.330;2022-08-03T13:14:58;18.90;;;17.30;;
14187;SDS011;7175;51.978;5.330;2022-08-03T13:17:29;18.67;;;17.07;;
14187;SDS011;7175;51.978;5.330;2022-08-03T13:19:57;18.00;;;16.50;;
14187;SDS011;7175;51.978;5.330;2022-08-03T13:22:32;18.10;;;16.60;;
14187;SDS011;7175;51.978;5.330;2022-08-03T13:25:02;18.00;;;16.50;;
14187;SDS011;7175;51.978;5.330;2022-08-03T13:30:25;18.17;;;16.67;;
14187;SDS011;7175;51.978;5.330;2022-08-03T13:33:11;18.57;;;16.97;;
14187;SDS011;7175;51.978;5.330;2022-08-03T13:35:41;18.93;;;17.33;;
14187;SDS011;7175;51.978;5.330;2022-08-03T13:40:58;18.90;;;17.30;;
14187;SDS011;7175;51.978;5.330;2022-08-03T13:43:39;19.00;;;17.40;;
14187;SDS011;7175;51.978;5.330;2022-08-03T13:46:21;18.93;;;17.33;;
14187;SDS011;7175;51.978;5.330;2022-08-03T13:48:50;18.83;;;17.23;;
14187;SDS011;7175;51.978;5.330;2022-08-03T13:51:25;23.23;;;17.50;;
14187;SDS011;7175;51.978;5.330;2022-08-03T13:53:53;18.70;;;17.10;;
14187;SDS011;7175;51.978;5.330;2022-08-03T13:56:29;18.63;;;17.03;;
14187;SDS011;7175;51.978;5.330;2022-08-03T14:02:12;19.20;;;17.60;;
14187;SDS011;7175;51.978;5.330;2022-08-03T14:04:46;19.40;;;17.80;;
14187;SDS011;7175;51.978;5.330;2022-08-03T14:07:26;19.47;;;17.87;;
14187;SDS011;7175;51.978;5.330;2022-08-03T14:09:58;19.00;;;17.40;;
14187;SDS011;7175;51.978;5.330;2022-08-03T14:17:54;19.83;;;18.03;;
14187;SDS011;7175;51.978;5.330;2022-08-03T14:20:25;18.47;;;16.87;;
14187;SDS011;7175;51.978;5.330;2022-08-03T14:23:02;18.60;;;17.00;;
14187;SDS011;7175;51.978;5.330;2022-08-03T14:28:40;17.73;;;16.23;;
14187;SDS011;7175;51.978;5.330;2022-08-03T14:34:36;17.80;;;16.30;;
14187;SDS011;7175;51.978;5.330;2022-08-03T14:46:41;17.83;;;16.33;;
14187;SDS011;7175;51.978;5.330;2022-08-03T14:52:25;18.07;;;16.57;;
14187;SDS011;7175;51.978;5.330;2022-08-03T14:55:00;18.23;;;16.73;;
14187;SDS011;7175;51.978;5.330;2022-08-03T14:57:32;17.90;;;16.40;;
14187;SDS011;7175;51.978;5.330;2022-08-03T15:00:00;18.00;;;16.50;;
14187;SDS011;7175;51.978;5.330;2022-08-03T15:02:39;18.20;;;16.70;;
14187;SDS011;7175;51.978;5.330;2022-08-03T15:05:14;17.87;;;16.37;;
14187;SDS011;7175;51.978;5.330;2022-08-03T15:07:42;18.90;;;17.23;;
14187;SDS011;7175;51.978;5.330;2022-08-03T15:10:18;18.50;;;16.90;;
14187;SDS011;7175;51.978;5.330;2022-08-03T15:12:55;17.90;;;16.40;;
14187;SDS011;7175;51.978;5.330;2022-08-03T15:15:26;18.70;;;17.00;;
14187;SDS011;7175;51.978;5.330;2022-08-03T15:17:56;17.90;;;16.40;;
14187;SDS011;7175;51.978;5.330;2022-08-03T15:20:26;18.50;;;16.90;;
14187;SDS011;7175;51.978;5.330;2022-08-03T15:23:09;18.10;;;16.60;;
14187;SDS011;7175;51.978;5.330;2022-08-03T15:25:37;17.63;;;16.10;;
14187;SDS011;7175;51.978;5.330;2022-08-03T15:28:27;17.70;;;16.20;;
14187;SDS011;7175;51.978;5.330;2022-08-03T15:30:55;18.90;;;17.20;;
14187;SDS011;7175;51.978;5.330;2022-08-03T15:33:24;18.70;;;17.10;;
14187;SDS011;7175;51.978;5.330;2022-08-03T15:35:52;18.27;;;16.67;;
14187;SDS011;7175;51.978;5.330;2022-08-03T15:38:21;18.03;;;16.53;;
14187;SDS011;7175;51.978;5.330;2022-08-03T15:40:52;18.27;;;16.67;;
14187;SDS011;7175;51.978;5.330;2022-08-03T15:43:21;19.27;;;17.47;;
14187;SDS011;7175;51.978;5.330;2022-08-03T15:45:50;18.07;;;16.57;;
14187;SDS011;7175;51.978;5.330;2022-08-03T15:48:38;18.23;;;16.67;;
14187;SDS011;7175;51.978;5.330;2022-08-03T15:51:07;23.70;;;22.10;;
14187;SDS011;7175;51.978;5.330;2022-08-03T15:53:36;21.33;;;19.83;;
14187;SDS011;7175;51.978;5.330;2022-08-03T15:56:05;18.37;;;16.83;;
14187;SDS011;7175;51.978;5.330;2022-08-03T15:58:42;18.50;;;16.97;;
14187;SDS011;7175;51.978;5.330;2022-08-03T16:01:31;24.13;;;21.90;;
14187;SDS011;7175;51.978;5.330;2022-08-03T16:03:59;163.43;;;91.43;;
14187;SDS011;7175;51.978;5.330;2022-08-03T16:06:27;36.93;;;33.60;;
14187;SDS011;7175;51.978;5.330;2022-08-03T16:09:02;19.00;;;17.40;;
14187;SDS011;7175;51.978;5.330;2022-08-03T16:11:52;20.53;;;18.63;;
14187;SDS011;7175;51.978;5.330;2022-08-03T16:14:20;19.03;;;17.43;;
14187;SDS011;7175;51.978;5.330;2022-08-03T16:17:02;20.60;;;18.70;;
14187;SDS011;7175;51.978;5.330;2022-08-03T16:19:30;18.90;;;17.30;;
14187;SDS011;7175;51.978;5.330;2022-08-03T16:21:58;19.50;;;17.90;;
14187;SDS011;7175;51.978;5.330;2022-08-03T16:24:28;19.40;;;17.80;;
14187;SDS011;7175;51.978;5.330;2022-08-03T16:26:56;26.67;;;22.73;;
14187;SDS011;7175;51.978;5.330;2022-08-03T16:29:26;20.67;;;18.73;;
14187;SDS011;7175;51.978;5.330;2022-08-03T16:31:55;20.60;;;18.80;;
14187;SDS011;7175;51.978;5.330;2022-08-03T16:34:25;25.03;;;22.67;;
14187;SDS011;7175;51.978;5.330;2022-08-03T16:36:54;19.17;;;17.63;;
14187;SDS011;7175;51.978;5.330;2022-08-03T16:39:24;72.07;;;53.63;;
14187;SDS011;7175;51.978;5.330;2022-08-03T16:41:52;157.20;;;113.30;;
14187;SDS011;7175;51.978;5.330;2022-08-03T16:44:27;90.80;;;81.27;;
14187;SDS011;7175;51.978;5.330;2022-08-03T16:46:56;20.83;;;18.90;;
14187;SDS011;7175;51.978;5.330;2022-08-03T16:49:26;21.93;;;19.90;;
14187;SDS011;7175;51.978;5.330;2022-08-03T16:52:14;34.20;;;31.23;;
14187;SDS011;7175;51.978;5.330;2022-08-03T16:54:43;90.37;;;80.73;;
14187;SDS011;7175;51.978;5.330;2022-08-03T16:57:19;41.03;;;37.37;;
14187;SDS011;7175;51.978;5.330;2022-08-03T17:00:08;49.97;;;45.10;;
14187;SDS011;7175;51.978;5.330;2022-08-03T17:02:59;67.53;;;60.83;;
14187;SDS011;7175;51.978;5.330;2022-08-03T17:05:31;26.00;;;23.83;;
14187;SDS011;7175;51.978;5.330;2022-08-03T17:08:13;17.87;;;16.40;;
14187;SDS011;7175;51.978;5.330;2022-08-03T17:10:42;18.93;;;17.43;;
14187;SDS011;7175;51.978;5.330;2022-08-03T17:13:10;18.17;;;16.67;;
14187;SDS011;7175;51.978;5.330;2022-08-03T17:15:48;17.80;;;16.30;;
14187;SDS011;7175;51.978;5.330;2022-08-03T17:18:27;18.27;;;16.77;;
14187;SDS011;7175;51.978;5.330;2022-08-03T17:20:59;17.50;;;16.10;;
14187;SDS011;7175;51.978;5.330;2022-08-03T17:23:34;18.40;;;16.90;;
14187;SDS011;7175;51.978;5.330;2022-08-03T17:26:10;17.90;;;16.40;;
14187;SDS011;7175;51.978;5.330;2022-08-03T17:28:48;17.70;;;16.30;;
14187;SDS011;7175;51.978;5.330;2022-08-03T17:31:23;19.73;;;17.97;;
14187;SDS011;7175;51.978;5.330;2022-08-03T17:33:58;18.07;;;16.57;;
14187;SDS011;7175;51.978;5.330;2022-08-03T17:36:32;17.80;;;16.30;;
14187;SDS011;7175;51.978;5.330;2022-08-03T17:39:22;17.83;;;16.33;;
14187;SDS011;7175;51.978;5.330;2022-08-03T17:42:11;18.43;;;16.83;;
14187;SDS011;7175;51.978;5.330;2022-08-03T17:44:57;19.13;;;17.33;;
14187;SDS011;7175;51.978;5.330;2022-08-03T17:47:31;18.50;;;17.00;;
14187;SDS011;7175;51.978;5.330;2022-08-03T17:50:09;18.50;;;17.00;;
14187;SDS011;7175;51.978;5.330;2022-08-03T17:52:52;18.30;;;16.80;;
14187;SDS011;7175;51.978;5.330;2022-08-03T17:55:33;18.17;;;16.67;;
14187;SDS011;7175;51.978;5.330;2022-08-03T17:58:24;18.80;;;17.30;;
14187;SDS011;7175;51.978;5.330;2022-08-03T18:01:07;18.13;;;16.63;;
14187;SDS011;7175;51.978;5.330;2022-08-03T18:04:18;18.17;;;16.67;;
14187;SDS011;7175;51.978;5.330;2022-08-03T18:06:57;18.40;;;16.90;;
14187;SDS011;7175;51.978;5.330;2022-08-03T18:09:43;18.37;;;16.87;;
14187;SDS011;7175;51.978;5.330;2022-08-03T18:12:34;18.40;;;16.90;;
14187;SDS011;7175;51.978;5.330;2022-08-03T18:15:19;18.73;;;17.23;;
14187;SDS011;7175;51.978;5.330;2022-08-03T18:17:53;18.70;;;17.20;;
14187;SDS011;7175;51.978;5.330;2022-08-03T18:23:25;18.37;;;16.87;;
14187;SDS011;7175;51.978;5.330;2022-08-03T18:26:04;18.60;;;17.10;;
14187;SDS011;7175;51.978;5.330;2022-08-03T18:28:37;18.40;;;16.90;;
14187;SDS011;7175;51.978;5.330;2022-08-03T18:31:07;19.03;;;17.43;;
14187;SDS011;7175;51.978;5.330;2022-08-03T18:33:37;19.47;;;17.10;;
14187;SDS011;7175;51.978;5.330;2022-08-03T18:36:26;18.93;;;17.43;;
14187;SDS011;7175;51.978;5.330;2022-08-03T18:38:57;18.80;;;17.30;;
14187;SDS011;7175;51.978;5.330;2022-08-03T18:41:29;18.57;;;17.17;;
14187;SDS011;7175;51.978;5.330;2022-08-03T18:44:00;18.47;;;17.07;;
14187;SDS011;7175;51.978;5.330;2022-08-03T18:46:37;18.33;;;16.93;;
14187;SDS011;7175;51.978;5.330;2022-08-03T18:49:15;18.60;;;17.20;;
14187;SDS011;7175;51.978;5.330;2022-08-03T18:51:56;18.90;;;17.50;;
14187;SDS011;7175;51.978;5.330;2022-08-03T18:54:29;18.80;;;17.40;;
14187;SDS011;7175;51.978;5.330;2022-08-03T18:57:27;18.63;;;17.23;;
14187;SDS011;7175;51.978;5.330;2022-08-03T19:00:04;18.27;;;16.87;;
14187;SDS011;7175;51.978;5.330;2022-08-03T19:02:40;17.93;;;16.57;;
14187;SDS011;7175;51.978;5.330;2022-08-03T19:05:15;18.20;;;16.80;;
14187;SDS011;7175;51.978;5.330;2022-08-03T19:07:48;18.30;;;16.90;;
14187;SDS011;7175;51.978;5.330;2022-08-03T19:10:27;18.20;;;16.80;;
14187;SDS011;7175;51.978;5.330;2022-08-03T19:13:00;18.10;;;16.70;;
14187;SDS011;7175;51.978;5.330;2022-08-03T19:15:37;17.90;;;16.60;;
14187;SDS011;7175;51.978;5.330;2022-08-03T19:18:17;18.20;;;16.80;;